Time;durP1;ratioP1;P1;durP2;ratioP2;P2;SDS_P1;SDS_P2;PMS_P1;PMS_P2;Temp;Humidity;BMP_temperature;BMP_pressure;BME280_temperature;BME280_humidity;BME280_pressure;Samples;Min_cycle;Max_cycle;Signal;HPM_P1;HPM_P2
2021/12/24 00:00:13;;;;;;;0.00;0.00;;;;;;;;;;4231341;28;20043;-33
2021/12/24 00:02:15;;;;;;;0.10;0.10;;;;;;;;;;4231310;28;20062;-33
2021/12/24 00:04:15;;;;;;;0.10;0.10;;;;;;;;;;4231171;28;20078;-34
2021/12/24 00:06:16;;;;;;;0.13;0.10;;;;;;;;;;4231454;28;20063;-34
2021/12/24 00:08:17;;;;;;;0.10;0.10;;;;;;;;;;4230918;28;20112;-33
2021/12/24 00:10:19;;;;;;;0.13;0.10;;;;;;;;;;4231123;28;20062;-34
2021/12/24 00:12:21;;;;;;;0.10;0.10;;;;;;;;;;4231084;28;20352;-34
2021/12/24 00:14:24;;;;;;;0.10;0.10;;;;;;;;;;4231176;28;20047;-34
2021/12/24 00:16:32;;;;;;;0.10;0.10;;;;;;;;;;4231052;28;20373;-34
2021/12/24 00:18:40;;;;;;;0.15;0.03;;;;;;;;;;4230923;28;20376;-34
2021/12/24 00:36:54;;;;;;;0.10;0.10;;;;;;;;;;4230485;28;20480;-33
2021/12/24 00:38:55;;;;;;;0.10;0.10;;;;;;;;;;4230778;28;20082;-34
2021/12/24 00:40:56;;;;;;;0.10;0.10;;;;;;;;;;4230706;28;20097;-34
2021/12/24 00:42:57;;;;;;;0.20;0.10;;;;;;;;;;4230686;28;20081;-33
2021/12/24 00:44:58;;;;;;;0.10;0.10;;;;;;;;;;4230813;28;20052;-35
2021/12/24 00:46:59;;;;;;;0.10;0.10;;;;;;;;;;4212394;28;20143;-34
2021/12/24 00:49:01;;;;;;;0.10;0.10;;;;;;;;;;4231048;28;20111;-34
2021/12/24 00:55:02;;;;;;;0.10;0.10;;;;;;;;;;4230144;28;20100;-33
2021/12/24 00:55:25;;;;;;;0.20;0.20;;;;;;;;;;4230888;28;20044;-33
2021/12/24 00:57:26;;;;;;;0.17;0.17;;;;;;;;;;4230648;28;20047;-34
2021/12/24 00:59:28;;;;;;;0.10;0.10;;;;;;;;;;4212432;28;20044;-34
2021/12/24 01:01:29;;;;;;;0.10;0.10;;;;;;;;;;4230345;28;20047;-34
2021/12/24 01:03:30;;;;;;;0.10;0.00;;;;;;;;;;4212260;28;20056;-34
2021/12/24 01:05:31;;;;;;;0.20;0.20;;;;;;;;;;4212692;28;20170;-34
2021/12/24 01:07:33;;;;;;;0.20;0.20;;;;;;;;;;4211939;28;20155;-34
2021/12/24 01:09:34;;;;;;;0.10;0.10;;;;;;;;;;4223265;28;20048;-34
2021/12/24 01:11:35;;;;;;;0.20;0.20;;;;;;;;;;4213368;28;20052;-33
2021/12/24 01:13:37;;;;;;;0.20;0.20;;;;;;;;;;4195669;28;20049;-33
2021/12/24 01:15:49;;;;;;;0.03;0.03;;;;;;;;;;4195492;28;20124;-33
2021/12/24 01:19:53;;;;;;;0.38;0.10;;;;;;;;;;4195842;28;20143;-33
2021/12/24 01:24:00;;;;;;;0.38;0.20;;;;;;;;;;4213438;28;20134;-34
2021/12/24 01:26:08;;;;;;;0.10;0.10;;;;;;;;;;4213702;28;20048;-34
2021/12/24 01:43:58;;;;;;;0.10;0.10;;;;;;;;;;4195530;28;20044;-34
2021/12/24 01:46:01;;;;;;;0.10;0.10;;;;;;;;;;4195399;28;20452;-34
2021/12/24 01:48:08;;;;;;;0.10;0.10;;;;;;;;;;4195520;28;20060;-34
2021/12/24 01:50:10;;;;;;;0.10;0.10;;;;;;;;;;4195394;28;20358;-34
2021/12/24 01:52:11;;;;;;;0.10;0.10;;;;;;;;;;4178392;28;20045;-34
2021/12/24 01:54:14;;;;;;;0.10;0.10;;;;;;;;;;4195469;28;20052;-33
2021/12/24 01:56:15;;;;;;;0.10;0.10;;;;;;;;;;4179035;28;20060;-33
2021/12/24 01:58:20;;;;;;;0.30;0.20;;;;;;;;;;4195271;28;20527;-33
2021/12/24 02:00:23;;;;;;;0.10;0.10;;;;;;;;;;4213214;28;20127;-34
2021/12/24 02:02:24;;;;;;;0.20;0.10;;;;;;;;;;4195208;28;20053;-34
2021/12/24 02:04:25;;;;;;;0.30;0.30;;;;;;;;;;4195313;28;20052;-34
2021/12/24 02:06:26;;;;;;;0.10;0.10;;;;;;;;;;4213314;28;20066;-33
2021/12/24 02:08:28;;;;;;;0.10;0.10;;;;;;;;;;4194756;28;20056;-33
2021/12/24 02:10:30;;;;;;;0.22;0.13;;;;;;;;;;4196502;28;20503;-33
2021/12/24 02:12:34;;;;;;;0.10;0.10;;;;;;;;;;4198348;28;20049;-33
2021/12/24 02:14:38;;;;;;;0.10;0.10;;;;;;;;;;4198260;28;20052;-33
2021/12/24 02:17:34;;;;;;;0.10;0.10;;;;;;;;;;4197895;28;20455;-35
2021/12/24 02:28:30;;;;;;;;;;;;;;;;;;4216347;28;20397;-33
2021/12/24 02:30:32;;;;;;;0.10;0.10;;;;;;;;;;4198278;28;19920;-33
2021/12/24 02:32:33;;;;;;;0.10;0.10;;;;;;;;;;4215809;28;20544;-34
2021/12/24 02:34:35;;;;;;;0.22;0.10;;;;;;;;;;4215791;28;20059;-34
2021/12/24 02:36:36;;;;;;;0.10;0.10;;;;;;;;;;4197975;28;20048;-34
2021/12/24 02:38:38;;;;;;;0.10;0.10;;;;;;;;;;4215678;28;20093;-34
2021/12/24 02:40:39;;;;;;;0.38;0.10;;;;;;;;;;4181429;28;20049;-34
2021/12/24 02:42:46;;;;;;;0.10;0.10;;;;;;;;;;4197484;28;20061;-34
2021/12/24 02:44:48;;;;;;;0.20;0.20;;;;;;;;;;4215811;28;20381;-35
2021/12/24 02:47:15;;;;;;;0.22;0.20;;;;;;;;;;4215632;28;20048;-33
2021/12/24 02:49:18;;;;;;;0.15;0.15;;;;;;;;;;4215381;28;20388;-34
2021/12/24 02:53:58;;;;;;;0.20;0.15;;;;;;;;;;4215509;28;20438;-34
2021/12/24 02:55:59;;;;;;;;;;;;;;;;;;4216422;28;20044;-34
2021/12/24 02:58:00;;;;;;;0.10;0.10;;;;;;;;;;4197581;28;20379;-34
2021/12/24 03:00:07;;;;;;;0.32;0.10;;;;;;;;;;4197552;28;20462;-34
2021/12/24 03:02:08;;;;;;;0.30;0.10;;;;;;;;;;4215335;28;20391;-33
2021/12/24 03:04:09;;;;;;;0.10;0.08;;;;;;;;;;4196654;28;20106;-34
2021/12/24 03:06:10;;;;;;;0.03;0.03;;;;;;;;;;4198776;28;20056;-33
2021/12/24 03:08:11;;;;;;;0.10;0.10;;;;;;;;;;4196943;28;20428;-34
2021/12/24 03:10:16;;;;;;;0.00;0.00;;;;;;;;;;4197351;28;20059;-33
2021/12/24 03:12:17;;;;;;;0.03;0.03;;;;;;;;;;4198466;28;20052;-33
2021/12/24 03:14:19;;;;;;;0.10;0.10;;;;;;;;;;4198675;28;20049;-33
2021/12/24 03:16:21;;;;;;;0.10;0.10;;;;;;;;;;4180916;28;20052;-35
2021/12/24 03:18:27;;;;;;;0.10;0.10;;;;;;;;;;4180602;28;20057;-34
2021/12/24 03:20:33;;;;;;;0.10;0.10;;;;;;;;;;4164168;28;20053;-34
2021/12/24 03:23:01;;;;;;;0.00;0.00;;;;;;;;;;4179012;28;20566;-33
2021/12/24 03:25:03;;;;;;;0.17;0.10;;;;;;;;;;4197189;28;20072;-34
2021/12/24 03:27:05;;;;;;;0.30;0.10;;;;;;;;;;4198104;28;20041;-33
2021/12/24 03:29:07;;;;;;;0.10;0.10;;;;;;;;;;4198219;28;20385;-34
2021/12/24 03:31:09;;;;;;;0.10;0.10;;;;;;;;;;4198257;28;20040;-33
2021/12/24 03:33:09;;;;;;;0.25;0.20;;;;;;;;;;4198195;28;20649;-33
2021/12/24 03:35:11;;;;;;;0.20;0.20;;;;;;;;;;4198088;28;20052;-34
2021/12/24 03:37:12;;;;;;;0.10;0.10;;;;;;;;;;4195787;28;20117;-34
2021/12/24 03:39:13;;;;;;;0.10;0.10;;;;;;;;;;4180153;28;20053;-34
2021/12/24 03:41:14;;;;;;;0.15;0.10;;;;;;;;;;4180330;28;20083;-34
2021/12/24 03:43:15;;;;;;;0.08;0.00;;;;;;;;;;4180072;28;20079;-33
2021/12/24 03:45:37;;;;;;;0.10;0.10;;;;;;;;;;4180570;28;20061;-33
2021/12/24 03:47:41;;;;;;;0.32;0.13;;;;;;;;;;4197897;28;20048;-33
2021/12/24 03:49:56;;;;;;;0.10;0.10;;;;;;;;;;4196763;28;20477;-34
2021/12/24 03:52:14;;;;;;;0.17;0.10;;;;;;;;;;4179610;28;20064;-33
2021/12/24 03:56:35;;;;;;;0.05;0.05;;;;;;;;;;4196193;28;20138;-33
2021/12/24 03:58:36;;;;;;;0.10;0.00;;;;;;;;;;4196427;28;20059;-34
2021/12/24 04:01:06;;;;;;;;;;;;;;;;;;4189109;28;20056;-34
2021/12/24 04:03:25;;;;;;;0.10;0.10;;;;;;;;;;4197818;28;19927;-34
2021/12/24 04:05:46;;;;;;;0.13;0.13;;;;;;;;;;4197892;28;20060;-33
2021/12/24 04:08:06;;;;;;;0.00;0.00;;;;;;;;;;4197286;28;20064;-34
2021/12/24 04:10:40;;;;;;;0.10;0.10;;;;;;;;;;4197656;28;20118;-34
2021/12/24 04:13:01;;;;;;;0.20;0.10;;;;;;;;;;4196483;28;20473;-34
2021/12/24 04:15:02;;;;;;;0.10;0.10;;;;;;;;;;4180138;28;20059;-34
2021/12/24 04:17:04;;;;;;;0.85;0.10;;;;;;;;;;4196200;28;20103;-33
2021/12/24 04:25:54;;;;;;;0.03;0.03;;;;;;;;;;4196332;28;20048;-34
2021/12/24 04:27:58;;;;;;;0.10;0.10;;;;;;;;;;4179500;28;20071;-34
2021/12/24 04:30:06;;;;;;;0.20;0.20;;;;;;;;;;4179693;28;20083;-34
2021/12/24 04:32:17;;;;;;;;;;;;;;;;;;4180055;28;20559;-34
2021/12/24 04:34:27;;;;;;;0.20;0.10;;;;;;;;;;4197179;28;19962;-33
2021/12/24 04:52:50;;;;;;;0.10;0.10;;;;;;;;;;4195432;28;20060;-33
2021/12/24 05:02:40;;;;;;;0.00;0.00;;;;;;;;;;4195837;28;20044;-34
2021/12/24 05:04:30;;;;;;;0.10;0.10;;;;;;;;;;4195819;28;20111;-34
2021/12/24 05:06:37;;;;;;;0.10;0.00;;;;;;;;;;4179236;28;20049;-34
2021/12/24 05:10:42;;;;;;;0.10;0.10;;;;;;;;;;4195679;28;20433;-34
2021/12/24 05:12:46;;;;;;;0.00;0.00;;;;;;;;;;4179069;28;20048;-34
2021/12/24 05:14:47;;;;;;;0.08;0.00;;;;;;;;;;4179093;28;20374;-33
2021/12/24 05:17:29;;;;;;;0.10;0.10;;;;;;;;;;4196749;28;20048;-33
2021/12/24 05:22:34;;;;;;;0.03;0.03;;;;;;;;;;4195052;28;20106;-34
2021/12/24 05:24:43;;;;;;;0.10;0.10;;;;;;;;;;4195700;28;20053;-34
2021/12/24 05:26:45;;;;;;;0.10;0.10;;;;;;;;;;4180509;28;20186;-34
2021/12/24 05:28:46;;;;;;;0.08;0.08;;;;;;;;;;4180291;28;20114;-34
2021/12/24 05:30:47;;;;;;;0.05;0.05;;;;;;;;;;4178874;28;20421;-34
2021/12/24 05:32:48;;;;;;;0.08;0.08;;;;;;;;;;4180152;28;20378;-34
2021/12/24 05:34:49;;;;;;;0.65;0.10;;;;;;;;;;4195533;28;20068;-34
2021/12/24 05:36:50;;;;;;;0.10;0.10;;;;;;;;;;4179654;28;20458;-34
2021/12/24 05:38:51;;;;;;;0.63;0.20;;;;;;;;;;4195516;28;20041;-34
2021/12/24 05:40:52;;;;;;;0.10;0.10;;;;;;;;;;4179182;28;20056;-34
2021/12/24 05:42:53;;;;;;;0.10;0.10;;;;;;;;;;4180210;28;20397;-34
2021/12/24 05:45:00;;;;;;;0.25;0.20;;;;;;;;;;4196081;28;20082;-34
2021/12/24 05:47:20;;;;;;;0.10;0.10;;;;;;;;;;4183305;28;20056;-34
2021/12/24 05:49:24;;;;;;;0.28;0.10;;;;;;;;;;4198650;28;20082;-34
2021/12/24 05:52:00;;;;;;;0.08;0.08;;;;;;;;;;4147907;28;20123;-34
2021/12/24 05:54:08;;;;;;;0.43;0.32;;;;;;;;;;4162294;28;20057;-34
2021/12/24 05:56:10;;;;;;;0.20;0.10;;;;;;;;;;4198796;28;20052;-34
2021/12/24 05:58:14;;;;;;;0.03;0.00;;;;;;;;;;4182169;28;20052;-34
2021/12/24 06:00:15;;;;;;;0.00;0.00;;;;;;;;;;4181963;28;20041;-34
2021/12/24 06:02:20;;;;;;;0.10;0.10;;;;;;;;;;4181802;28;20154;-33
2021/12/24 06:04:21;;;;;;;0.10;0.10;;;;;;;;;;4181951;28;20473;-34
2021/12/24 06:06:22;;;;;;;0.10;0.10;;;;;;;;;;4183339;28;20110;-33
2021/12/24 06:08:23;;;;;;;0.10;0.10;;;;;;;;;;4182617;28;20053;-33
2021/12/24 06:10:24;;;;;;;0.10;0.10;;;;;;;;;;4182978;28;20087;-33
2021/12/24 06:12:25;;;;;;;0.08;0.08;;;;;;;;;;4182839;28;20049;-34
2021/12/24 06:14:26;;;;;;;0.38;0.10;;;;;;;;;;4183321;28;20446;-34
2021/12/24 06:16:27;;;;;;;0.17;0.10;;;;;;;;;;4183208;28;20041;-34
2021/12/24 06:18:29;;;;;;;0.20;0.20;;;;;;;;;;4182855;28;20053;-35
2021/12/24 06:20:30;;;;;;;0.22;0.00;;;;;;;;;;4181522;28;20133;-34
2021/12/24 06:22:31;;;;;;;0.10;0.00;;;;;;;;;;4182366;28;20092;-34
2021/12/24 06:24:32;;;;;;;0.30;0.10;;;;;;;;;;4199109;28;20082;-34
2021/12/24 06:26:33;;;;;;;0.00;0.00;;;;;;;;;;4199219;28;20105;-35
2021/12/24 06:28:35;;;;;;;0.10;0.10;;;;;;;;;;4199214;28;20094;-34
2021/12/24 06:30:37;;;;;;;0.40;0.03;;;;;;;;;;4199617;28;20098;-34
2021/12/24 06:32:38;;;;;;;0.20;0.10;;;;;;;;;;4199025;28;20105;-33
2021/12/24 06:34:39;;;;;;;0.10;0.10;;;;;;;;;;4199165;28;20107;-34
2021/12/24 06:36:43;;;;;;;0.00;0.00;;;;;;;;;;4198779;28;20395;-34
2021/12/24 06:38:44;;;;;;;1.35;0.10;;;;;;;;;;4199089;28;20048;-34
2021/12/24 06:40:45;;;;;;;0.13;0.10;;;;;;;;;;4181262;28;20163;-34
2021/12/24 06:42:46;;;;;;;0.00;0.00;;;;;;;;;;4199235;28;20095;-34
2021/12/24 06:44:47;;;;;;;0.22;0.10;;;;;;;;;;4198886;28;20480;-34
2021/12/24 06:46:48;;;;;;;0.10;0.10;;;;;;;;;;4199220;28;20048;-35
2021/12/24 06:48:56;;;;;;;0.20;0.10;;;;;;;;;;4198997;28;20128;-35
2021/12/24 06:50:57;;;;;;;0.20;0.10;;;;;;;;;;4198927;28;20060;-34
2021/12/24 06:52:58;;;;;;;0.10;0.10;;;;;;;;;;4198469;28;20095;-35
2021/12/24 06:54:58;;;;;;;0.10;0.10;;;;;;;;;;4198928;28;20079;-34
2021/12/24 06:57:01;;;;;;;0.85;0.10;;;;;;;;;;4197441;28;20052;-35
2021/12/24 06:59:03;;;;;;;0.20;0.00;;;;;;;;;;4181112;28;20431;-34
2021/12/24 07:01:04;;;;;;;0.10;0.10;;;;;;;;;;4181038;28;20110;-34
2021/12/24 07:03:05;;;;;;;0.17;0.10;;;;;;;;;;4197448;28;20134;-34
2021/12/24 07:05:07;;;;;;;0.03;0.03;;;;;;;;;;4198778;28;20530;-34
2021/12/24 07:07:08;;;;;;;0.10;0.10;;;;;;;;;;4198175;28;20048;-34
2021/12/24 07:09:09;;;;;;;0.10;0.10;;;;;;;;;;4198782;28;20617;-35
2021/12/24 07:11:10;;;;;;;0.47;0.10;;;;;;;;;;4198759;28;20056;-34
2021/12/24 07:13:11;;;;;;;0.00;0.00;;;;;;;;;;4198680;28;20471;-34
2021/12/24 07:15:12;;;;;;;0.20;0.10;;;;;;;;;;4198847;28;20507;-34
2021/12/24 07:17:13;;;;;;;0.10;0.10;;;;;;;;;;4197426;28;20113;-34
2021/12/24 07:19:14;;;;;;;0.00;0.00;;;;;;;;;;4198678;28;20057;-34
2021/12/24 07:21:15;;;;;;;0.10;0.10;;;;;;;;;;4198497;28;20074;-35
2021/12/24 07:23:16;;;;;;;0.10;0.10;;;;;;;;;;4197742;28;20102;-34
2021/12/24 07:25:17;;;;;;;0.00;0.00;;;;;;;;;;4198349;28;20056;-34
2021/12/24 07:27:19;;;;;;;0.10;0.10;;;;;;;;;;4180497;28;20088;-34
2021/12/24 07:29:20;;;;;;;0.17;0.10;;;;;;;;;;4198575;28;20109;-34
2021/12/24 07:31:21;;;;;;;0.13;0.03;;;;;;;;;;4198615;28;20586;-35
2021/12/24 07:33:22;;;;;;;0.00;0.00;;;;;;;;;;4198155;28;20044;-34
2021/12/24 07:35:23;;;;;;;0.08;0.00;;;;;;;;;;4198453;28;20052;-34
2021/12/24 07:37:24;;;;;;;0.10;0.10;;;;;;;;;;4197788;28;20052;-34
2021/12/24 07:39:25;;;;;;;0.00;0.00;;;;;;;;;;4198398;28;20044;-34
2021/12/24 07:41:26;;;;;;;0.05;0.05;;;;;;;;;;4198121;28;20056;-34
2021/12/24 07:43:27;;;;;;;0.00;0.00;;;;;;;;;;4198166;28;20052;-34
2021/12/24 07:45:28;;;;;;;0.63;0.00;;;;;;;;;;4198074;28;20395;-34
2021/12/24 07:47:36;;;;;;;0.03;0.00;;;;;;;;;;4197880;28;20052;-34
2021/12/24 07:49:40;;;;;;;0.03;0.03;;;;;;;;;;4198117;28;20052;-34
2021/12/24 07:52:02;;;;;;;0.20;0.15;;;;;;;;;;4197396;28;20429;-34
2021/12/24 07:54:03;;;;;;;0.22;0.10;;;;;;;;;;4198046;28;20490;-34
2021/12/24 07:56:04;;;;;;;0.00;0.00;;;;;;;;;;4197870;28;20053;-34
2021/12/24 07:58:07;;;;;;;0.00;0.00;;;;;;;;;;4198035;28;20048;-34
2021/12/24 08:00:08;;;;;;;0.10;0.10;;;;;;;;;;4197851;28;20044;-34
2021/12/24 08:02:16;;;;;;;0.10;0.10;;;;;;;;;;4197795;28;20056;-34
2021/12/24 08:04:17;;;;;;;0.20;0.10;;;;;;;;;;4197941;28;20094;-34
2021/12/24 08:06:19;;;;;;;0.22;0.20;;;;;;;;;;4197875;28;20060;-34
2021/12/24 08:08:20;;;;;;;0.10;0.00;;;;;;;;;;4203233;28;20044;-34
2021/12/24 08:10:22;;;;;;;0.10;0.10;;;;;;;;;;4214344;28;20094;-34
2021/12/24 08:12:23;;;;;;;0.10;0.10;;;;;;;;;;4214323;28;20048;-34
2021/12/24 08:14:24;;;;;;;0.10;0.10;;;;;;;;;;4214681;28;20052;-34
2021/12/24 08:16:25;;;;;;;0.20;0.10;;;;;;;;;;4214327;28;20044;-34
2021/12/24 08:18:26;;;;;;;0.17;0.10;;;;;;;;;;4179707;28;20060;-34
2021/12/24 08:20:27;;;;;;;0.20;0.10;;;;;;;;;;4214670;28;20373;-34
2021/12/24 08:22:28;;;;;;;0.03;0.03;;;;;;;;;;4213712;28;20071;-34
2021/12/24 08:24:30;;;;;;;0.10;0.10;;;;;;;;;;4214129;28;20063;-34
2021/12/24 08:26:32;;;;;;;0.10;0.10;;;;;;;;;;4214434;28;20052;-34
2021/12/24 08:28:33;;;;;;;0.10;0.05;;;;;;;;;;4214131;28;20052;-34
2021/12/24 08:30:34;;;;;;;0.10;0.10;;;;;;;;;;4214014;28;20135;-33
2021/12/24 08:32:40;;;;;;;0.20;0.10;;;;;;;;;;4214351;28;20060;-34
2021/12/24 08:34:41;;;;;;;0.10;0.10;;;;;;;;;;4214257;28;20105;-35
2021/12/24 08:36:42;;;;;;;0.35;0.10;;;;;;;;;;4213643;28;20044;-34
2021/12/24 08:38:43;;;;;;;0.00;0.00;;;;;;;;;;4213959;28;20488;-34
2021/12/24 08:40:44;;;;;;;0.05;0.05;;;;;;;;;;4214003;28;20060;-34
2021/12/24 08:42:46;;;;;;;0.10;0.00;;;;;;;;;;4213943;28;20135;-34
2021/12/24 08:44:46;;;;;;;0.10;0.10;;;;;;;;;;4214128;28;20052;-34
2021/12/24 08:46:47;;;;;;;0.10;0.10;;;;;;;;;;4214022;28;20112;-34
2021/12/24 08:48:48;;;;;;;0.10;0.10;;;;;;;;;;4213837;28;20094;-34
2021/12/24 08:50:49;;;;;;;0.00;0.00;;;;;;;;;;4213828;28;20048;-34
2021/12/24 08:52:50;;;;;;;0.00;0.00;;;;;;;;;;4213640;28;20044;-34
2021/12/24 08:54:51;;;;;;;0.00;0.00;;;;;;;;;;4214314;28;20115;-34
2021/12/24 08:56:53;;;;;;;0.00;0.00;;;;;;;;;;4213822;28;20518;-34
2021/12/24 08:58:54;;;;;;;0.10;0.10;;;;;;;;;;4214100;28;20052;-34
2021/12/24 09:00:55;;;;;;;0.20;0.20;;;;;;;;;;4213713;28;20409;-35
2021/12/24 09:02:56;;;;;;;0.10;0.00;;;;;;;;;;4214220;28;20078;-34
2021/12/24 09:04:57;;;;;;;0.10;0.10;;;;;;;;;;4213835;28;20113;-34
2021/12/24 09:06:58;;;;;;;0.10;0.10;;;;;;;;;;4213158;28;20110;-34
2021/12/24 09:08:59;;;;;;;0.00;0.00;;;;;;;;;;4213992;28;20048;-34
2021/12/24 09:11:00;;;;;;;0.13;0.10;;;;;;;;;;4213548;28;20074;-34
2021/12/24 09:13:01;;;;;;;0.00;0.00;;;;;;;;;;4213918;28;20051;-34
2021/12/24 09:15:03;;;;;;;0.05;0.05;;;;;;;;;;4213790;28;20364;-34
2021/12/24 09:17:04;;;;;;;0.05;0.00;;;;;;;;;;4213600;28;20048;-34
2021/12/24 09:19:09;;;;;;;0.10;0.10;;;;;;;;;;4213635;28;20040;-34
2021/12/24 09:21:16;;;;;;;0.13;0.13;;;;;;;;;;4216290;28;20056;-34
2021/12/24 09:23:18;;;;;;;0.00;0.00;;;;;;;;;;4216447;28;20158;-34
2021/12/24 09:25:21;;;;;;;0.05;0.05;;;;;;;;;;4217357;28;20060;-35
2021/12/24 09:27:22;;;;;;;0.10;0.10;;;;;;;;;;4217052;28;20105;-35
2021/12/24 09:29:24;;;;;;;0.00;0.00;;;;;;;;;;4216808;28;20523;-34
2021/12/24 09:31:25;;;;;;;0.00;0.00;;;;;;;;;;4217046;28;20094;-34
2021/12/24 09:33:26;;;;;;;0.15;0.10;;;;;;;;;;4199026;28;20057;-34
2021/12/24 09:35:28;;;;;;;0.10;0.10;;;;;;;;;;4216838;28;20164;-34
2021/12/24 09:37:29;;;;;;;0.00;0.00;;;;;;;;;;4216640;28;20044;-34
2021/12/24 09:39:30;;;;;;;0.10;0.10;;;;;;;;;;4216791;28;20092;-34
2021/12/24 09:41:31;;;;;;;0.03;0.03;;;;;;;;;;4216785;28;20043;-34
2021/12/24 09:43:32;;;;;;;0.03;0.03;;;;;;;;;;4216605;28;20047;-34
2021/12/24 09:45:33;;;;;;;0.20;0.10;;;;;;;;;;4216657;28;20407;-35
2021/12/24 09:47:34;;;;;;;0.00;0.00;;;;;;;;;;4216639;28;20485;-33
2021/12/24 09:49:35;;;;;;;0.25;0.10;;;;;;;;;;4217066;28;20052;-33
2021/12/24 09:51:38;;;;;;;0.00;0.00;;;;;;;;;;4216506;28;20518;-33
2021/12/24 09:53:39;;;;;;;0.00;0.00;;;;;;;;;;4216344;28;20373;-33
2021/12/24 09:55:40;;;;;;;0.00;0.00;;;;;;;;;;4216880;28;20048;-33
2021/12/24 09:57:42;;;;;;;0.10;0.10;;;;;;;;;;4216547;28;20441;-35
2021/12/24 09:59:42;;;;;;;0.10;0.10;;;;;;;;;;4216498;28;20051;-34
2021/12/24 10:01:50;;;;;;;0.00;0.00;;;;;;;;;;4215877;28;20048;-34
2021/12/24 10:03:58;;;;;;;0.05;0.05;;;;;;;;;;4216340;28;20054;-34
2021/12/24 10:06:00;;;;;;;0.10;0.10;;;;;;;;;;4216540;28;20052;-34
2021/12/24 10:08:02;;;;;;;0.00;0.00;;;;;;;;;;4215896;28;20460;-34
2021/12/24 10:10:07;;;;;;;0.00;0.00;;;;;;;;;;4216585;28;20062;-34
2021/12/24 10:12:21;;;;;;;0.10;0.10;;;;;;;;;;4216017;28;20055;-34
2021/12/24 10:14:29;;;;;;;0.10;0.10;;;;;;;;;;4216303;28;20052;-34
2021/12/24 10:16:30;;;;;;;0.00;0.00;;;;;;;;;;4216550;28;20055;-34
2021/12/24 10:18:51;;;;;;;0.00;0.00;;;;;;;;;;4216316;28;20048;-34
2021/12/24 10:21:06;;;;;;;0.40;0.10;;;;;;;;;;4215294;28;20075;-34
2021/12/24 10:23:08;;;;;;;0.00;0.00;;;;;;;;;;4215373;28;20064;-34
2021/12/24 10:25:12;;;;;;;0.00;0.00;;;;;;;;;;4216047;28;20048;-34
2021/12/24 10:27:13;;;;;;;0.10;0.03;;;;;;;;;;4215926;28;20044;-34
2021/12/24 10:29:18;;;;;;;0.00;0.00;;;;;;;;;;4216059;28;20105;-34
2021/12/24 10:31:23;;;;;;;0.10;0.10;;;;;;;;;;4215563;28;20052;-35
2021/12/24 10:33:24;;;;;;;0.00;0.00;;;;;;;;;;4215979;28;20044;-34
2021/12/24 10:35:29;;;;;;;0.20;0.00;;;;;;;;;;4216005;28;20126;-34
2021/12/24 10:37:31;;;;;;;0.20;0.10;;;;;;;;;;4215498;28;20048;-34
2021/12/24 10:39:34;;;;;;;0.00;0.00;;;;;;;;;;4216183;28;20040;-34
2021/12/24 10:41:41;;;;;;;0.00;0.00;;;;;;;;;;4215401;28;20044;-34
2021/12/24 10:43:42;;;;;;;0.10;0.10;;;;;;;;;;4215928;28;20048;-34
2021/12/24 10:45:43;;;;;;;0.10;0.10;;;;;;;;;;4215821;28;20158;-34
2021/12/24 10:47:45;;;;;;;0.00;0.00;;;;;;;;;;4197665;28;20048;-35
2021/12/24 10:49:59;;;;;;;0.00;0.00;;;;;;;;;;4197758;28;20500;-34
2021/12/24 10:52:12;;;;;;;0.10;0.10;;;;;;;;;;4215042;28;20480;-34
2021/12/24 10:54:13;;;;;;;0.08;0.00;;;;;;;;;;4215760;28;20048;-35
2021/12/24 10:56:23;;;;;;;0.03;0.00;;;;;;;;;;4215653;28;20131;-34
2021/12/24 10:58:26;;;;;;;0.03;0.00;;;;;;;;;;4215465;28;20491;-34
2021/12/24 11:00:29;;;;;;;0.00;0.00;;;;;;;;;;4215452;28;20476;-34
2021/12/24 11:02:32;;;;;;;0.03;0.03;;;;;;;;;;4215456;28;20424;-34
2021/12/24 11:04:34;;;;;;;0.00;0.00;;;;;;;;;;4215490;28;20052;-34
2021/12/24 11:06:35;;;;;;;0.20;0.00;;;;;;;;;;4197357;28;20048;-34
2021/12/24 11:08:37;;;;;;;0.10;0.10;;;;;;;;;;4215167;28;20048;-34
2021/12/24 11:10:40;;;;;;;0.00;0.00;;;;;;;;;;4215363;28;20048;-35
2021/12/24 11:12:41;;;;;;;0.10;0.10;;;;;;;;;;4215329;28;20075;-34
2021/12/24 11:14:42;;;;;;;0.00;0.00;;;;;;;;;;4215653;28;20094;-34
2021/12/24 11:16:45;;;;;;;0.00;0.00;;;;;;;;;;4215542;28;20106;-34
2021/12/24 11:19:00;;;;;;;0.03;0.00;;;;;;;;;;4215179;28;20543;-34
2021/12/24 11:21:03;;;;;;;0.00;0.00;;;;;;;;;;4215263;28;20048;-34
2021/12/24 11:23:12;;;;;;;0.10;0.08;;;;;;;;;;4214324;28;20488;-34
2021/12/24 11:25:13;;;;;;;0.08;0.05;;;;;;;;;;4214955;28;20118;-34
2021/12/24 11:27:14;;;;;;;0.10;0.10;;;;;;;;;;4214927;28;20043;-35
2021/12/24 11:29:15;;;;;;;0.05;0.00;;;;;;;;;;4215013;28;20044;-34
2021/12/24 11:31:24;;;;;;;0.10;0.10;;;;;;;;;;4215147;28;20087;-33
2021/12/24 11:33:26;;;;;;;0.00;0.00;;;;;;;;;;4215215;28;20052;-34
2021/12/24 11:35:28;;;;;;;0.28;0.10;;;;;;;;;;4215269;28;20044;-34
2021/12/24 11:37:29;;;;;;;0.00;0.00;;;;;;;;;;4214439;28;20044;-34
2021/12/24 11:39:30;;;;;;;0.00;0.00;;;;;;;;;;4214810;28;20044;-35
2021/12/24 11:41:32;;;;;;;0.08;0.00;;;;;;;;;;4214857;28;20056;-34
2021/12/24 11:43:34;;;;;;;0.10;0.00;;;;;;;;;;4213932;28;20476;-34
2021/12/24 11:45:35;;;;;;;0.00;0.00;;;;;;;;;;4196800;28;20049;-34
2021/12/24 11:47:37;;;;;;;0.00;0.00;;;;;;;;;;4214596;28;20363;-34
2021/12/24 11:49:38;;;;;;;0.10;0.00;;;;;;;;;;4214552;28;20055;-34
2021/12/24 11:51:42;;;;;;;0.00;0.00;;;;;;;;;;4214389;28;20048;-34
2021/12/24 11:53:43;;;;;;;0.00;0.00;;;;;;;;;;4214703;28;20044;-34
2021/12/24 11:55:48;;;;;;;0.00;0.00;;;;;;;;;;4214479;28;20112;-35
2021/12/24 11:57:50;;;;;;;0.00;0.00;;;;;;;;;;4214342;28;20093;-34
2021/12/24 11:59:52;;;;;;;0.05;0.03;;;;;;;;;;4214832;28;20044;-33
2021/12/24 12:01:53;;;;;;;0.10;0.10;;;;;;;;;;4214500;28;20113;-35
2021/12/24 12:03:57;;;;;;;0.20;0.10;;;;;;;;;;4214537;28;20105;-34
2021/12/24 12:05:59;;;;;;;0.10;0.10;;;;;;;;;;4214817;28;20056;-34
2021/12/24 12:08:18;;;;;;;0.00;0.00;;;;;;;;;;4196258;28;20205;-34
2021/12/24 12:10:38;;;;;;;0.15;0.00;;;;;;;;;;4214545;28;20059;-33
2021/12/24 12:12:40;;;;;;;0.10;0.00;;;;;;;;;;4214428;28;20048;-34
2021/12/24 12:14:42;;;;;;;0.00;0.00;;;;;;;;;;4214366;28;20450;-34
2021/12/24 12:16:42;;;;;;;0.08;0.08;;;;;;;;;;4196312;28;20190;-35
2021/12/24 12:18:48;;;;;;;0.20;0.08;;;;;;;;;;4214281;28;20090;-34
2021/12/24 12:20:56;;;;;;;0.30;0.08;;;;;;;;;;4214542;28;20048;-34
2021/12/24 12:23:01;;;;;;;0.10;0.00;;;;;;;;;;4213571;28;20056;-34
2021/12/24 12:25:03;;;;;;;0.35;0.08;;;;;;;;;;4213736;28;20376;-34
2021/12/24 12:27:16;;;;;;;0.00;0.00;;;;;;;;;;4213887;28;20093;-34
2021/12/24 12:29:29;;;;;;;0.20;0.20;;;;;;;;;;4214082;28;20052;-34
2021/12/24 12:31:30;;;;;;;0.00;0.00;;;;;;;;;;4214030;28;20052;-33
2021/12/24 12:33:31;;;;;;;0.00;0.00;;;;;;;;;;4214070;28;20131;-34
2021/12/24 12:35:41;;;;;;;0.03;0.00;;;;;;;;;;4214196;28;20547;-34
2021/12/24 12:37:44;;;;;;;0.15;0.00;;;;;;;;;;4213810;28;20396;-34
2021/12/24 12:39:46;;;;;;;0.00;0.00;;;;;;;;;;4196001;28;20044;-34
2021/12/24 12:41:50;;;;;;;0.90;0.10;;;;;;;;;;4196024;28;20067;-34
2021/12/24 12:43:52;;;;;;;0.10;0.10;;;;;;;;;;4213171;28;20052;-34
2021/12/24 12:45:56;;;;;;;0.00;0.00;;;;;;;;;;4213917;28;20471;-34
2021/12/24 12:48:01;;;;;;;0.00;0.00;;;;;;;;;;4213481;28;20376;-33
2021/12/24 12:50:16;;;;;;;0.00;0.00;;;;;;;;;;4214169;28;20101;-34
2021/12/24 12:52:31;;;;;;;0.00;0.00;;;;;;;;;;4213332;28;20052;-34
2021/12/24 12:54:39;;;;;;;0.10;0.03;;;;;;;;;;4213986;28;20043;-35
2021/12/24 12:56:40;;;;;;;0.03;0.00;;;;;;;;;;4195791;28;20048;-33
2021/12/24 12:58:42;;;;;;;0.03;0.00;;;;;;;;;;4213902;28;20095;-34
2021/12/24 13:01:01;;;;;;;0.40;0.10;;;;;;;;;;4214027;28;20048;-34
2021/12/24 13:05:10;;;;;;;0.00;0.00;;;;;;;;;;4213698;28;20052;-35
2021/12/24 13:07:11;;;;;;;0.10;0.10;;;;;;;;;;4213211;28;20052;-34
2021/12/24 13:09:13;;;;;;;0.00;0.00;;;;;;;;;;4213507;28;20094;-34
2021/12/24 13:11:18;;;;;;;0.00;0.00;;;;;;;;;;4213626;28;20060;-35
2021/12/24 13:13:19;;;;;;;0.00;0.00;;;;;;;;;;4213742;28;20077;-34
2021/12/24 13:15:20;;;;;;;0.00;0.00;;;;;;;;;;4213644;28;20040;-34
2021/12/24 13:17:22;;;;;;;0.20;0.10;;;;;;;;;;4213516;28;20131;-33
2021/12/24 13:24:12;;;;;;;0.55;0.10;;;;;;;;;;4213486;28;20446;-34
2021/12/24 13:26:17;;;;;;;0.00;0.00;;;;;;;;;;4213486;28;20105;-34
2021/12/24 13:28:18;;;;;;;0.00;0.00;;;;;;;;;;4213678;28;20052;-33
2021/12/24 13:30:27;;;;;;;0.22;0.10;;;;;;;;;;4213542;28;20194;-34
2021/12/24 13:32:28;;;;;;;0.00;0.00;;;;;;;;;;4213409;28;20044;-34
2021/12/24 13:34:29;;;;;;;0.00;0.00;;;;;;;;;;4213768;28;20105;-34
2021/12/24 13:36:30;;;;;;;0.00;0.00;;;;;;;;;;4213565;28;20111;-34
2021/12/24 13:38:30;;;;;;;0.10;0.10;;;;;;;;;;4213146;28;20485;-34
2021/12/24 13:40:32;;;;;;;0.00;0.00;;;;;;;;;;4213681;28;20437;-34
2021/12/24 13:42:49;;;;;;;0.40;0.10;;;;;;;;;;4213308;28;20062;-34
2021/12/24 13:44:57;;;;;;;0.10;0.10;;;;;;;;;;4213690;28;20052;-34
2021/12/24 13:46:59;;;;;;;0.10;0.00;;;;;;;;;;4213330;28;20105;-34
2021/12/24 13:55:29;;;;;;;0.10;0.00;;;;;;;;;;4213429;28;20442;-34
2021/12/24 13:57:30;;;;;;;0.30;0.10;;;;;;;;;;4195482;28;20044;-34
2021/12/24 13:59:32;;;;;;;0.10;0.10;;;;;;;;;;4213223;28;20052;-34
2021/12/24 14:01:34;;;;;;;0.25;0.10;;;;;;;;;;4213227;28;20370;-34
2021/12/24 14:03:34;;;;;;;0.00;0.00;;;;;;;;;;4213066;28;20052;-34